createdAt,value
2022-07-28T00:03:34.271Z,70.76
2022-07-28T00:06:01.264Z,70.87
2022-07-28T00:08:28.317Z,71.37
2022-07-28T00:10:55.452Z,70.52
2022-07-28T00:13:22.695Z,70.71
2022-07-28T00:15:49.738Z,70.35
2022-07-28T00:18:16.960Z,69.87
2022-07-28T00:20:44.360Z,69.91
2022-07-28T00:23:11.499Z,69.74
2022-07-28T00:25:38.516Z,69.66
2022-07-28T00:28:05.675Z,69.53
2022-07-28T00:30:32.736Z,69.04
2022-07-28T00:33:00.337Z,68.78
2022-07-28T00:35:31.019Z,69.67
2022-07-28T00:37:59.141Z,69.88
2022-07-28T00:40:47.396Z,70.10
2022-07-28T00:43:14.962Z,70.10
2022-07-28T00:45:42.324Z,69.61
2022-07-28T00:48:09.655Z,69.43
2022-07-28T00:50:39.530Z,69.54
2022-07-28T00:53:08.795Z,69.54
2022-07-28T00:56:05.431Z,69.48
2022-07-28T00:58:27.932Z,69.20
2022-07-28T01:00:55.506Z,68.92
2022-07-28T01:03:23.403Z,68.79
2022-07-28T01:05:59.223Z,69.24
2022-07-28T01:08:49.187Z,69.48
2022-07-28T01:11:45.022Z,69.30
2022-07-28T01:14:44.292Z,69.33
2022-07-28T01:17:20.525Z,69.60
2022-07-28T01:20:21.548Z,70.01
2022-07-28T01:23:34.634Z,69.59
2022-07-28T01:26:38.431Z,69.17
2022-07-28T01:29:42.724Z,69.21
2022-07-28T01:32:29.004Z,68.75
2022-07-28T01:35:08.344Z,68.91
2022-07-28T01:37:50.755Z,69.08
2022-07-28T01:40:22.934Z,68.94
2022-07-28T01:42:54.415Z,68.70
2022-07-28T01:45:23.842Z,68.57
2022-07-28T01:47:53.352Z,68.88
2022-07-28T01:50:23.105Z,68.82
2022-07-28T01:52:51.635Z,68.41
2022-07-28T01:55:22.343Z,68.53
2022-07-28T01:57:51.377Z,68.38
2022-07-28T02:00:18.825Z,68.09
2022-07-28T02:02:48.572Z,68.31
2022-07-28T02:05:19.275Z,68.17
2022-07-28T02:07:51.209Z,67.84
2022-07-28T02:10:20.325Z,68.03
2022-07-28T02:12:50.193Z,67.95
2022-07-28T02:15:18.292Z,67.64
2022-07-28T02:17:47.393Z,67.72
2022-07-28T02:20:16.670Z,67.55
2022-07-28T02:22:51.862Z,67.33
2022-07-28T02:25:20.892Z,67.33
2022-07-28T02:27:57.276Z,67.14
2022-07-28T02:30:34.689Z,67.11
2022-07-28T02:33:11.495Z,67.28
2022-07-28T02:35:42.902Z,67.04
2022-07-28T02:38:15.358Z,66.92
2022-07-28T02:40:45.274Z,67.10
2022-07-28T02:43:16.318Z,66.88
2022-07-28T02:45:47.573Z,67.19
2022-07-28T02:48:19.322Z,66.93
2022-07-28T02:50:47.905Z,67.07
2022-07-28T02:53:16.973Z,68.08
2022-07-28T02:55:48.020Z,67.63
2022-07-28T02:58:16.915Z,68.39
2022-07-28T03:00:45.542Z,68.66
2022-07-28T03:03:13.025Z,68.58
2022-07-28T03:05:58.736Z,69.14
2022-07-28T03:08:25.916Z,68.59
2022-07-28T03:11:07.833Z,69.48
2022-07-28T03:13:34.865Z,69.37
2022-07-28T03:16:02.552Z,69.37
2022-07-28T03:18:29.569Z,69.76
2022-07-28T03:20:57.163Z,70.11
2022-07-28T03:23:44.646Z,70.40
2022-07-28T03:26:33.142Z,70.28
2022-07-28T03:29:01.632Z,70.24
2022-07-28T03:31:31.953Z,70.83
2022-07-28T03:33:59.026Z,70.11
2022-07-28T03:36:33.924Z,70.13
2022-07-28T03:39:09.594Z,71.29
2022-07-28T03:41:38.071Z,70.61
2022-07-28T03:44:06.232Z,70.39
2022-07-28T03:46:34.010Z,70.03
2022-07-28T03:49:01.265Z,70.13
2022-07-28T03:51:29.813Z,69.97
2022-07-28T03:53:56.856Z,69.68
2022-07-28T03:56:23.761Z,69.21
2022-07-28T03:58:50.852Z,68.91
2022-07-28T04:01:18.024Z,68.99
2022-07-28T04:03:45.125Z,68.61
2022-07-28T04:06:15.813Z,68.64
2022-07-28T04:08:44.124Z,68.44
2022-07-28T04:11:11.190Z,68.34
2022-07-28T04:13:38.290Z,67.89
2022-07-28T04:16:07.185Z,67.55
2022-07-28T04:18:35.349Z,67.61
2022-07-28T04:21:02.492Z,66.98
2022-07-28T04:23:29.418Z,66.58
2022-07-28T04:25:56.395Z,66.74
2022-07-28T04:28:24.338Z,66.29
2022-07-28T04:30:51.504Z,66.09
2022-07-28T04:33:19.699Z,65.50
2022-07-28T04:35:47.277Z,65.23
2022-07-28T04:38:15.223Z,64.79
2022-07-28T04:40:42.731Z,64.49
2022-07-28T04:43:10.648Z,64.25
2022-07-28T04:45:37.767Z,63.82
2022-07-28T04:48:05.702Z,63.58
2022-07-28T04:50:32.956Z,63.35
2022-07-28T04:53:00.315Z,62.73
2022-07-28T04:55:27.673Z,62.32
2022-07-28T04:57:54.652Z,61.67
2022-07-28T05:00:23.125Z,60.77
2022-07-28T05:02:51.575Z,60.16
2022-07-28T05:05:18.809Z,60.36
2022-07-28T05:07:45.847Z,59.50
2022-07-28T05:10:13.130Z,59.72
2022-07-28T05:12:40.213Z,59.44
2022-07-28T05:15:08.609Z,59.55
2022-07-28T05:17:37.277Z,59.14
2022-07-28T05:20:05.945Z,58.46
2022-07-28T05:22:46.996Z,57.27
2022-07-28T05:25:18.768Z,57.55
2022-07-28T05:27:46.918Z,57.35
2022-07-28T05:30:15.294Z,56.72
2022-07-28T05:32:42.795Z,56.60
2022-07-28T05:35:10.225Z,55.37
2022-07-28T05:37:38.089Z,54.83
2022-07-28T05:40:14.186Z,54.18
2022-07-28T05:42:45.245Z,54.26
2022-07-28T05:45:16.322Z,53.88
2022-07-28T05:47:52.852Z,52.16
2022-07-28T05:50:21.886Z,51.88
2022-07-28T05:52:50.335Z,51.14
2022-07-28T05:55:18.118Z,50.26
2022-07-28T05:57:45.564Z,50.06
2022-07-28T06:00:20.956Z,49.29
2022-07-28T06:02:49.894Z,49.21
2022-07-28T06:05:22.606Z,48.52
2022-07-28T06:07:50.935Z,48.67
2022-07-28T06:10:20.434Z,47.95
2022-07-28T06:12:49.874Z,48.09
2022-07-28T06:15:22.644Z,48.40
2022-07-28T06:17:55.874Z,48.36
2022-07-28T06:20:24.265Z,47.30
2022-07-28T06:22:53.573Z,46.58
2022-07-28T06:25:23.466Z,44.73
2022-07-28T06:28:01.017Z,44.54
2022-07-28T06:30:28.032Z,42.91
2022-07-28T06:32:56.318Z,42.31
2022-07-28T06:35:23.925Z,42.43
2022-07-28T06:37:52.065Z,41.28
2022-07-28T06:40:20.403Z,40.47
2022-07-28T06:42:47.677Z,39.38
2022-07-28T06:45:21.453Z,39.25
2022-07-28T06:47:50.168Z,38.11
2022-07-28T06:50:26.340Z,37.88
2022-07-28T06:52:55.933Z,37.23
2022-07-28T06:55:23.107Z,37.09
2022-07-28T06:57:50.353Z,37.02
2022-07-28T07:00:17.858Z,36.35
2022-07-28T07:02:45.013Z,35.39
2022-07-28T07:05:13.105Z,35.49
2022-07-28T07:07:43.254Z,35.49
2022-07-28T07:10:11.452Z,35.75
2022-07-28T07:12:39.199Z,36.08
2022-07-28T07:15:07.563Z,35.60
2022-07-28T07:17:34.586Z,35.62
2022-07-28T07:20:01.620Z,37.97
2022-07-28T07:22:28.819Z,38.60
2022-07-28T07:24:57.685Z,38.99
2022-07-28T07:27:25.266Z,39.14
2022-07-28T07:29:52.426Z,38.81
2022-07-28T07:32:19.451Z,38.55
2022-07-28T07:34:46.491Z,38.85
2022-07-28T07:37:15.287Z,38.92
2022-07-28T07:39:42.436Z,38.49
2022-07-28T07:42:09.759Z,38.58
2022-07-28T07:44:36.879Z,38.74
2022-07-28T07:47:04.432Z,38.87
2022-07-28T07:49:44.998Z,38.14
2022-07-28T07:52:14.055Z,37.50
2022-07-28T07:54:41.862Z,37.92
2022-07-28T07:57:09.334Z,37.29
2022-07-28T07:59:36.334Z,36.73
2022-07-28T08:02:03.795Z,36.39
2022-07-28T08:04:30.967Z,37.17
2022-07-28T08:06:58.186Z,37.53
2022-07-28T08:09:25.850Z,36.47
2022-07-28T08:11:53.246Z,35.13
2022-07-28T08:14:20.463Z,33.21
2022-07-28T08:16:47.485Z,32.90
2022-07-28T08:19:14.649Z,32.62
2022-07-28T08:21:41.714Z,32.55
2022-07-28T08:24:08.954Z,32.62
2022-07-28T08:26:36.535Z,33.28
2022-07-28T08:29:03.942Z,33.59
2022-07-28T08:31:31.187Z,33.52
2022-07-28T08:34:03.566Z,33.34
2022-07-28T08:36:32.345Z,34.03
2022-07-28T08:38:59.426Z,34.11
2022-07-28T08:41:33.884Z,34.17
2022-07-28T08:44:04.354Z,34.53
2022-07-28T08:46:37.240Z,34.66
2022-07-28T08:49:14.837Z,35.14
2022-07-28T08:51:43.376Z,34.90
2022-07-28T08:54:15.990Z,34.83
2022-07-28T08:56:48.255Z,35.43
2022-07-28T08:59:15.851Z,35.46
2022-07-28T09:01:43.534Z,35.19
2022-07-28T09:04:11.243Z,35.75
2022-07-28T09:06:42.369Z,35.29
2022-07-28T09:09:12.347Z,34.85
2022-07-28T09:11:39.878Z,35.24
2022-07-28T09:14:07.324Z,34.90
2022-07-28T09:16:34.615Z,35.22
2022-07-28T09:19:01.663Z,34.98
2022-07-28T09:21:28.688Z,34.29
2022-07-28T09:23:55.757Z,34.37
2022-07-28T09:26:22.750Z,34.13
2022-07-28T09:28:52.496Z,33.72
2022-07-28T09:31:20.960Z,33.39
2022-07-28T09:34:01.172Z,32.92
2022-07-28T09:36:30.631Z,33.38
2022-07-28T09:38:57.846Z,33.26
2022-07-28T09:41:25.164Z,33.32
2022-07-28T09:43:55.350Z,32.89
2022-07-28T09:46:25.798Z,32.69
2022-07-28T09:48:58.655Z,32.70
2022-07-28T09:51:30.923Z,32.73
2022-07-28T09:54:18.646Z,32.59
2022-07-28T09:56:46.439Z,32.85
2022-07-28T09:59:16.214Z,33.02
2022-07-28T10:02:01.671Z,32.31
2022-07-28T10:04:37.511Z,33.15
2022-07-28T10:07:05.886Z,32.40
2022-07-28T10:09:33.755Z,32.05
2022-07-28T10:12:24.271Z,31.51
2022-07-28T10:14:53.275Z,31.32
2022-07-28T10:17:34.480Z,31.06
2022-07-28T10:20:06.161Z,32.62
2022-07-28T10:22:39.466Z,32.45
2022-07-28T10:25:12.909Z,31.37
2022-07-28T10:27:46.213Z,31.56
2022-07-28T10:30:14.211Z,31.78
2022-07-28T10:32:44.760Z,32.36
2022-07-28T10:35:14.100Z,33.05
2022-07-28T10:38:11.783Z,32.88
2022-07-28T10:40:44.653Z,32.11
2022-07-28T10:43:12.343Z,32.46
2022-07-28T10:46:04.498Z,32.35
2022-07-28T10:48:27.633Z,32.09
2022-07-28T10:50:56.172Z,32.33
2022-07-28T10:53:45.691Z,31.80
2022-07-28T10:56:30.458Z,31.98
2022-07-28T10:59:20.735Z,33.12
2022-07-28T11:01:50.368Z,32.73
2022-07-28T11:04:46.468Z,31.98
2022-07-28T11:07:15.715Z,32.09
2022-07-28T11:09:44.008Z,31.74
2022-07-28T11:12:16.149Z,32.07
2022-07-28T11:14:45.182Z,31.97
2022-07-28T11:17:23.833Z,31.13
2022-07-28T11:20:16.732Z,31.90
2022-07-28T11:22:43.196Z,31.88
2022-07-28T11:25:17.964Z,32.02
2022-07-28T11:27:54.607Z,31.61
2022-07-28T11:30:36.023Z,31.87
2022-07-28T11:33:05.519Z,31.83
2022-07-28T11:35:54.237Z,30.86
2022-07-28T11:38:22.561Z,31.41
2022-07-28T11:40:55.116Z,31.32
2022-07-28T11:43:35.819Z,31.15
2022-07-28T11:46:09.620Z,31.05
2022-07-28T11:48:39.930Z,31.17
2022-07-28T11:51:07.673Z,31.32
2022-07-28T11:53:42.406Z,30.71
2022-07-28T11:56:22.442Z,31.68
2022-07-28T11:58:58.135Z,31.57
2022-07-28T12:01:25.096Z,31.49
2022-07-28T12:03:56.833Z,32.08
2022-07-28T12:06:35.764Z,32.46
2022-07-28T12:09:07.286Z,32.55
2022-07-28T12:11:36.281Z,31.69
2022-07-28T12:14:08.581Z,31.46
2022-07-28T12:16:37.668Z,31.33
2022-07-28T12:19:06.563Z,31.09
2022-07-28T12:21:37.735Z,30.34
2022-07-28T12:24:19.869Z,30.36
2022-07-28T12:26:49.914Z,30.44
2022-07-28T12:29:20.385Z,30.76
2022-07-28T12:31:56.587Z,31.06
2022-07-28T12:34:28.646Z,30.29
2022-07-28T12:36:58.637Z,29.94
2022-07-28T12:39:26.272Z,29.97
2022-07-28T12:42:20.109Z,30.43
2022-07-28T12:44:49.009Z,30.54
2022-07-28T12:47:25.405Z,30.59
2022-07-28T12:50:11.117Z,30.53
2022-07-28T12:52:38.328Z,30.61
2022-07-28T12:55:21.674Z,30.89
2022-07-28T12:57:51.679Z,31.75
2022-07-28T13:00:28.409Z,32.15
2022-07-28T13:02:57.926Z,31.92
2022-07-28T13:05:28.933Z,32.01
2022-07-28T13:08:02.216Z,32.81
2022-07-28T13:10:31.162Z,32.05
2022-07-28T13:13:08.547Z,32.33
2022-07-28T13:15:35.640Z,31.75
2022-07-28T13:18:03.023Z,31.65
2022-07-28T13:20:34.593Z,31.70
2022-07-28T13:23:01.561Z,31.90
2022-07-28T13:25:28.642Z,31.69
2022-07-28T13:27:55.997Z,31.50
2022-07-28T13:30:23.835Z,31.82
2022-07-28T13:32:51.186Z,31.42
2022-07-28T13:35:19.192Z,31.76
2022-07-28T13:37:48.358Z,31.92
2022-07-28T13:40:15.493Z,31.46
2022-07-28T13:42:52.840Z,30.86
2022-07-28T13:45:22.262Z,30.78
2022-07-28T13:47:52.367Z,30.27
2022-07-28T13:50:20.650Z,29.72
2022-07-28T13:52:48.390Z,30.47
2022-07-28T13:55:19.713Z,30.48
2022-07-28T13:57:50.106Z,31.38
2022-07-28T14:00:18.830Z,31.40
2022-07-28T14:02:49.905Z,31.08
2022-07-28T14:05:17.178Z,30.47
2022-07-28T14:07:48.813Z,30.62
2022-07-28T14:10:17.505Z,30.46
2022-07-28T14:12:44.974Z,29.75
2022-07-28T14:15:15.796Z,29.46
2022-07-28T14:17:45.682Z,29.46
2022-07-28T14:20:16.795Z,29.38
2022-07-28T14:22:46.527Z,29.28
2022-07-28T14:25:20.748Z,29.29
2022-07-28T14:27:48.673Z,28.63
2022-07-28T14:30:15.727Z,28.59
2022-07-28T14:32:42.927Z,29.29
2022-07-28T14:35:10.145Z,29.28
2022-07-28T14:38:04.798Z,29.35
2022-07-28T14:40:24.648Z,30.06
2022-07-28T14:42:51.678Z,29.83
2022-07-28T14:45:18.734Z,29.86
2022-07-28T14:47:45.847Z,29.67
2022-07-28T14:50:13.895Z,29.50
2022-07-28T14:52:44.862Z,28.94
2022-07-28T14:55:12.708Z,29.30
2022-07-28T14:57:50.325Z,29.00
2022-07-28T15:00:22.954Z,29.03
2022-07-28T15:02:51.956Z,28.90
2022-07-28T15:05:25.298Z,28.63
2022-07-28T15:07:52.545Z,29.85
2022-07-28T15:10:20.886Z,29.59
2022-07-28T15:12:50.143Z,29.30
2022-07-28T15:15:17.433Z,29.09
2022-07-28T15:17:44.447Z,29.66
2022-07-28T15:20:11.782Z,29.97
2022-07-28T15:22:38.883Z,30.58
2022-07-28T15:25:06.266Z,30.17
2022-07-28T15:27:34.096Z,30.63
2022-07-28T15:30:02.984Z,31.22
2022-07-28T15:32:31.626Z,31.23
2022-07-28T15:34:59.412Z,31.53
2022-07-28T15:37:28.115Z,31.84
2022-07-28T15:39:55.514Z,31.43
2022-07-28T15:42:22.726Z,31.94
2022-07-28T15:44:49.752Z,32.08
2022-07-28T15:47:16.784Z,31.83
2022-07-28T15:49:49.918Z,31.58
2022-07-28T15:52:16.983Z,31.70
2022-07-28T15:54:44.267Z,31.65
2022-07-28T15:57:14.017Z,32.06
2022-07-28T15:59:50.200Z,31.97
2022-07-28T16:02:19.332Z,31.70
2022-07-28T16:04:48.961Z,31.80
2022-07-28T16:07:23.634Z,32.10
2022-07-28T16:09:52.370Z,32.26
2022-07-28T16:12:19.440Z,32.23
2022-07-28T16:14:46.622Z,32.47
2022-07-28T16:17:13.765Z,32.64
2022-07-28T16:19:50.254Z,32.57
2022-07-28T16:22:19.185Z,32.58
2022-07-28T16:24:46.775Z,32.75
2022-07-28T16:27:15.023Z,32.89
2022-07-28T16:29:42.895Z,33.07
2022-07-28T16:32:10.286Z,33.44
2022-07-28T16:34:37.812Z,33.84
2022-07-28T16:37:05.670Z,34.01
2022-07-28T16:39:34.518Z,34.37
2022-07-28T16:42:02.934Z,34.25
2022-07-28T16:44:31.025Z,34.05
2022-07-28T16:46:58.518Z,34.63
2022-07-28T16:49:25.938Z,34.29
2022-07-28T16:51:53.114Z,34.60
2022-07-28T16:54:20.666Z,34.51
2022-07-28T16:56:48.213Z,34.31
2022-07-28T16:59:15.304Z,34.61
2022-07-28T17:01:46.240Z,34.49
2022-07-28T17:04:18.389Z,35.04
2022-07-28T17:06:46.459Z,35.07
2022-07-28T17:09:14.931Z,35.15
2022-07-28T17:11:42.702Z,35.53
2022-07-28T17:14:11.003Z,35.27
2022-07-28T17:16:38.260Z,35.96
2022-07-28T17:19:05.552Z,36.11
2022-07-28T17:21:32.742Z,36.33
2022-07-28T17:23:59.683Z,36.72
2022-07-28T17:27:32.167Z,37.11
2022-07-28T17:29:14.122Z,37.01
2022-07-28T17:31:43.545Z,37.49
2022-07-28T17:34:10.632Z,37.11
2022-07-28T17:36:39.052Z,37.93
2022-07-28T17:39:09.093Z,38.25
2022-07-28T17:41:36.081Z,37.96
2022-07-28T17:44:03.147Z,38.65
2022-07-28T17:46:30.282Z,38.62
2022-07-28T17:48:59.041Z,39.31
2022-07-28T17:51:27.802Z,39.24
2022-07-28T17:53:54.991Z,39.70
2022-07-28T17:56:22.765Z,39.88
2022-07-28T17:58:49.813Z,40.13
2022-07-28T18:01:17.005Z,40.04
2022-07-28T18:03:59.424Z,40.46
2022-07-28T18:06:28.541Z,40.35
2022-07-28T18:08:55.611Z,40.34
2022-07-28T18:11:22.687Z,40.55
2022-07-28T18:14:03.753Z,40.93
2022-07-28T18:16:34.691Z,41.18
2022-07-28T18:19:02.912Z,41.29
2022-07-28T18:21:30.011Z,41.03
2022-07-28T18:23:57.132Z,41.45
2022-07-28T18:26:24.011Z,41.83
2022-07-28T18:28:51.017Z,42.09
2022-07-28T18:31:18.208Z,42.06
2022-07-28T18:33:45.210Z,42.06
2022-07-28T18:36:12.280Z,42.56
2022-07-28T18:38:39.220Z,43.01
2022-07-28T18:41:06.190Z,43.27
2022-07-28T18:43:33.141Z,43.47
2022-07-28T18:46:00.232Z,43.61
2022-07-28T18:48:27.203Z,43.64
2022-07-28T18:50:54.062Z,44.31
2022-07-28T18:53:21.372Z,44.37
2022-07-28T18:55:48.776Z,44.43
2022-07-28T18:58:15.804Z,44.98
2022-07-28T19:00:42.853Z,44.77
2022-07-28T19:03:09.966Z,45.28
2022-07-28T19:05:37.429Z,45.30
2022-07-28T19:08:05.751Z,45.99
2022-07-28T19:10:32.839Z,45.55
2022-07-28T19:13:00.069Z,46.30
2022-07-28T19:15:27.166Z,46.17
2022-07-28T19:18:11.527Z,46.74
2022-07-28T19:20:40.651Z,47.53
2022-07-28T19:23:07.753Z,47.55
2022-07-28T19:25:36.524Z,47.61
2022-07-28T19:28:04.671Z,47.84
2022-07-28T19:30:32.499Z,48.37
2022-07-28T19:32:59.696Z,48.22
2022-07-28T19:35:26.715Z,48.73
2022-07-28T19:37:55.656Z,49.06
2022-07-28T19:40:25.403Z,49.14
2022-07-28T19:42:53.630Z,49.24
2022-07-28T19:45:20.644Z,49.24
2022-07-28T19:47:49.690Z,49.09
2022-07-28T19:50:17.371Z,49.21
2022-07-28T19:52:44.484Z,49.27
2022-07-28T19:55:12.809Z,50.00
2022-07-28T19:57:44.493Z,50.42
2022-07-28T20:00:12.904Z,50.31
2022-07-28T20:02:40.577Z,50.78
2022-07-28T20:05:08.564Z,50.85
2022-07-28T20:07:36.593Z,51.41
2022-07-28T20:10:04.817Z,51.56
2022-07-28T20:12:36.367Z,51.78
2022-07-28T20:15:07.215Z,52.22
2022-07-28T20:17:39.522Z,52.06
2022-07-28T20:20:13.390Z,52.78
2022-07-28T20:22:41.873Z,51.96
2022-07-28T20:25:10.526Z,52.16
2022-07-28T20:27:41.754Z,52.62
2022-07-28T20:30:13.521Z,53.25
2022-07-28T20:32:42.126Z,52.93
2022-07-28T20:35:10.645Z,53.10
2022-07-28T20:37:38.079Z,52.92
2022-07-28T20:40:09.591Z,53.98
2022-07-28T20:42:37.113Z,54.03
2022-07-28T20:45:05.805Z,54.15
2022-07-28T20:47:33.354Z,54.44
2022-07-28T20:50:01.155Z,54.14
2022-07-28T20:52:28.181Z,54.10
2022-07-28T20:54:55.508Z,54.63
2022-07-28T20:57:23.274Z,54.78
2022-07-28T20:59:53.811Z,54.97
2022-07-28T21:02:21.906Z,54.88
2022-07-28T21:04:52.032Z,54.72
2022-07-28T21:07:59.936Z,55.17
2022-07-28T21:10:10.569Z,55.06
2022-07-28T21:12:38.531Z,55.68
2022-07-28T21:15:07.561Z,55.59
2022-07-28T21:17:35.050Z,55.70
2022-07-28T21:20:02.334Z,55.25
2022-07-28T21:22:29.378Z,55.58
2022-07-28T21:24:56.673Z,55.94
2022-07-28T21:27:24.359Z,56.42
2022-07-28T21:32:17.278Z,57.73
2022-07-28T21:34:44.431Z,56.65
2022-07-28T21:37:16.987Z,56.79
2022-07-28T21:39:43.924Z,56.93
2022-07-28T21:42:11.083Z,57.60
2022-07-28T21:44:38.358Z,57.43
2022-07-28T21:47:05.441Z,58.74
2022-07-28T21:49:32.628Z,59.69
2022-07-28T21:51:59.973Z,59.36
2022-07-28T21:54:27.250Z,58.77
2022-07-28T21:56:54.262Z,59.27
2022-07-28T21:59:21.246Z,59.10
2022-07-28T22:01:48.375Z,58.84
2022-07-28T22:04:15.936Z,59.02
2022-07-28T22:06:45.962Z,58.85
2022-07-28T22:09:14.547Z,59.14
2022-07-28T22:11:41.798Z,58.80
2022-07-28T22:14:08.748Z,59.10
2022-07-28T22:16:35.755Z,59.11
2022-07-28T22:19:02.983Z,58.75
2022-07-28T22:21:30.343Z,58.54
2022-07-28T22:23:57.512Z,58.88
2022-07-28T22:26:24.387Z,59.18
2022-07-28T22:28:51.484Z,59.44
2022-07-28T22:31:18.593Z,59.48
2022-07-28T22:33:45.567Z,59.95
2022-07-28T22:36:12.766Z,59.35
2022-07-28T22:38:39.708Z,59.68
2022-07-28T22:41:06.912Z,59.93
2022-07-28T22:43:34.674Z,59.77
2022-07-28T22:46:02.104Z,60.26
2022-07-28T22:48:32.735Z,60.72
2022-07-28T22:50:59.724Z,60.87
2022-07-28T22:53:26.714Z,60.72
2022-07-28T22:55:53.778Z,61.08
2022-07-28T22:58:20.760Z,60.89
2022-07-28T23:00:47.776Z,61.01
2022-07-28T23:03:16.877Z,60.65
2022-07-28T23:05:43.936Z,60.53
2022-07-28T23:08:10.887Z,60.46
2022-07-28T23:10:38.480Z,60.31
2022-07-28T23:13:05.495Z,60.76
2022-07-28T23:15:39.541Z,60.22
2022-07-28T23:18:10.850Z,60.45
2022-07-28T23:20:39.154Z,60.75
2022-07-28T23:23:06.503Z,60.19
2022-07-28T23:25:35.596Z,60.11
2022-07-28T23:28:02.677Z,60.40
2022-07-28T23:30:29.736Z,60.38
2022-07-28T23:32:56.847Z,60.53
2022-07-28T23:35:23.990Z,61.17
2022-07-28T23:37:51.103Z,60.70
2022-07-28T23:40:18.098Z,61.08
2022-07-28T23:42:45.044Z,61.31
2022-07-28T23:45:12.163Z,61.52
2022-07-28T23:47:39.084Z,62.02
2022-07-28T23:50:07.115Z,61.87
2022-07-28T23:52:34.155Z,62.29
2022-07-28T23:55:01.228Z,62.36
2022-07-28T23:57:30.951Z,62.71
2022-07-28T23:59:58.629Z,62.98
